Time;durP1;ratioP1;P1;durP2;ratioP2;P2;SDS_P1;SDS_P2;PMS_P1;PMS_P2;Temp;Humidity;BMP_temperature;BMP_pressure;BME280_temperature;BME280_humidity;BME280_pressure;Samples;Min_cycle;Max_cycle;Signal;HPM_P1;HPM_P2
2023/01/13 00:01:23;;;;;;;42.83;6.03;;;8.80;99.90;;;;;;4986719;28;20491;-67
2023/01/13 00:03:49;;;;;;;39.03;5.38;;;8.70;99.90;;;;;;4988030;28;20050;-67
2023/01/13 00:06:17;;;;;;;43.55;6.05;;;8.70;99.90;;;;;;4990315;28;20404;-65
2023/01/13 00:08:43;;;;;;;47.70;7.22;;;8.70;99.90;;;;;;4987432;28;20042;-68
2023/01/13 00:11:09;;;;;;;53.72;7.25;;;8.60;99.90;;;;;;4991644;28;21614;-66
2023/01/13 00:13:37;;;;;;;58.97;7.05;;;8.60;99.90;;;;;;4992770;28;20049;-67
2023/01/13 00:16:09;;;;;;;57.60;7.43;;;8.50;99.90;;;;;;4995000;28;20563;-71
2023/01/13 00:18:37;;;;;;;47.42;5.85;;;8.50;99.90;;;;;;5009895;28;20038;-67
2023/01/13 00:21:07;;;;;;;47.30;6.10;;;8.40;99.90;;;;;;4994400;28;20041;-65
2023/01/13 00:23:34;;;;;;;54.20;7.28;;;8.40;99.90;;;;;;5013390;28;20045;-65
2023/01/13 00:26:03;;;;;;;59.53;7.20;;;8.40;99.90;;;;;;5014814;28;20504;-69
2023/01/13 00:28:28;;;;;;;62.88;7.88;;;8.30;99.90;;;;;;5011802;28;20033;-68
2023/01/13 00:30:57;;;;;;;47.15;6.35;;;8.30;99.90;;;;;;4991825;28;20042;-67
2023/01/13 00:33:24;;;;;;;45.72;5.50;;;8.20;99.90;;;;;;4993239;28;20045;-67
2023/01/13 00:36:00;;;;;;;49.17;6.45;;;8.20;99.90;;;;;;5017178;28;20046;-67
2023/01/13 00:38:26;;;;;;;48.22;7.22;;;8.10;99.90;;;;;;4995410;28;20037;-67
2023/01/13 00:41:00;;;;;;;41.25;5.70;;;8.00;99.90;;;;;;5008399;28;20034;-66
2023/01/13 00:43:27;;;;;;;44.38;5.80;;;8.00;99.90;;;;;;4991665;28;20052;-69
2023/01/13 00:45:54;;;;;;;48.75;6.18;;;7.90;99.90;;;;;;4990487;28;20153;-69
2023/01/13 00:48:21;;;;;;;49.83;7.00;;;7.90;99.90;;;;;;4990755;28;20053;-66
2023/01/13 00:50:57;;;;;;;42.67;4.80;;;7.80;99.90;;;;;;4988695;28;20176;-69
2023/01/13 00:53:22;;;;;;;44.13;4.82;;;7.80;99.90;;;;;;4990847;28;20042;-71
2023/01/13 00:55:48;;;;;;;40.42;5.38;;;7.80;99.90;;;;;;4987907;28;20041;-69
2023/01/13 00:58:14;;;;;;;50.35;5.30;;;7.90;99.90;;;;;;4989906;28;20042;-69
2023/01/13 01:00:40;;;;;;;48.55;5.55;;;7.80;99.90;;;;;;4990264;28;20044;-71
2023/01/13 01:03:11;;;;;;;32.17;4.88;;;7.90;99.90;;;;;;5004526;28;20299;-72
2023/01/13 01:05:38;;;;;;;38.60;4.75;;;7.90;99.90;;;;;;4991507;28;20339;-70
2023/01/13 01:08:04;;;;;;;35.38;4.97;;;7.90;99.90;;;;;;5009771;28;20052;-70
2023/01/13 01:10:29;;;;;;;34.75;4.43;;;7.90;99.90;;;;;;4987816;28;20477;-66
2023/01/13 01:12:55;;;;;;;34.33;5.13;;;8.00;99.90;;;;;;4988909;28;20057;-68
2023/01/13 01:15:21;;;;;;;43.47;5.68;;;7.90;99.90;;;;;;4988569;28;20035;-64
2023/01/13 01:17:46;;;;;;;40.60;5.20;;;8.00;99.90;;;;;;4991943;28;20045;-66
2023/01/13 01:20:12;;;;;;;38.35;4.72;;;8.00;99.90;;;;;;4986619;28;20477;-70
2023/01/13 01:22:38;;;;;;;45.67;6.57;;;8.00;99.90;;;;;;5003460;28;20030;-66
2023/01/13 01:25:04;;;;;;;41.95;6.45;;;8.10;99.90;;;;;;4988713;28;20096;-65
2023/01/13 01:27:29;;;;;;;37.13;5.45;;;8.10;99.90;;;;;;4988335;28;20393;-68
2023/01/13 01:29:55;;;;;;;45.47;6.45;;;8.10;99.90;;;;;;4983181;28;20038;-66
2023/01/13 01:32:20;;;;;;;50.05;5.80;;;8.10;99.90;;;;;;5007964;28;20666;-67
2023/01/13 01:34:46;;;;;;;52.90;5.40;;;8.10;99.90;;;;;;4989163;28;20042;-67
2023/01/13 01:37:11;;;;;;;40.90;5.43;;;8.10;99.90;;;;;;4989363;28;20128;-67
2023/01/13 01:39:37;;;;;;;58.70;6.18;;;8.00;99.90;;;;;;4988735;28;20725;-67
2023/01/13 01:44:59;;;;;;;46.63;5.63;;;7.90;99.90;;;;;;4990070;28;20107;-68
2023/01/13 01:47:26;;;;;;;44.90;6.70;;;8.00;99.90;;;;;;4986993;28;20054;-65
2023/01/13 01:49:53;;;;;;;43.15;4.85;;;7.90;99.90;;;;;;4988745;28;20129;-69
2023/01/13 01:52:40;;;;;;;50.72;6.38;;;7.90;99.90;;;;;;4986205;28;20198;-66
2023/01/13 01:55:09;;;;;;;37.58;5.45;;;7.90;99.90;;;;;;4990794;28;20460;-64
2023/01/13 01:57:37;;;;;;;40.90;5.82;;;7.90;99.90;;;;;;4992538;28;20042;-67
2023/01/13 02:00:03;;;;;;;51.80;6.25;;;7.90;99.90;;;;;;4986422;28;20496;-66
2023/01/13 02:02:29;;;;;;;44.10;5.70;;;7.80;99.90;;;;;;4987306;28;20384;-66
2023/01/13 02:04:55;;;;;;;47.17;5.40;;;7.80;99.90;;;;;;4990405;28;20069;-67
2023/01/13 02:07:27;;;;;;;48.28;6.70;;;7.80;99.90;;;;;;5002264;28;21051;-66
2023/01/13 02:10:00;;;;;;;42.13;5.90;;;7.70;99.90;;;;;;5006027;28;20112;-66
2023/01/13 02:12:29;;;;;;;;;;;7.70;99.90;;;;;;5005457;28;20030;-68
2023/01/13 02:15:35;;;;;;;47.88;5.85;;;7.70;99.90;;;;;;4988554;28;20303;-69
2023/01/13 02:18:36;;;;;;;51.67;5.35;;;7.70;99.90;;;;;;4974749;28;20042;-66
2023/01/13 02:21:10;;;;;;;44.80;6.07;;;7.70;99.90;;;;;;4982723;28;20049;-69
2023/01/13 02:27:16;;;;;;;43.30;5.18;;;7.70;99.90;;;;;;4956486;28;20574;-69
2023/01/13 02:33:21;;;;;;;50.15;6.07;;;7.50;99.90;;;;;;4984648;28;20073;-66
2023/01/13 02:36:07;;;;;;;45.25;5.45;;;7.50;99.90;;;;;;4984202;28;20089;-70
2023/01/13 02:38:44;;;;;;;45.53;5.38;;;7.40;99.90;;;;;;4987909;28;20536;-70
2023/01/13 02:44:07;;;;;;;54.05;6.60;;;7.30;99.90;;;;;;4989674;28;20049;-69
2023/01/13 02:46:41;;;;;;;49.63;4.93;;;7.30;99.90;;;;;;4985567;28;20120;-69
2023/01/13 02:49:12;;;;;;;40.80;6.07;;;7.20;99.90;;;;;;4996105;28;20046;-69
2023/01/13 02:51:40;;;;;;;50.38;6.10;;;7.30;99.90;;;;;;4985957;28;20041;-69
2023/01/13 02:54:11;;;;;;;49.50;5.85;;;7.30;99.90;;;;;;4965704;28;20409;-74
2023/01/13 02:56:41;;;;;;;52.67;6.35;;;7.40;99.90;;;;;;4999774;28;20107;-70
2023/01/13 02:59:09;;;;;;;41.10;5.50;;;7.50;99.90;;;;;;4970668;28;20512;-71
2023/01/13 03:01:35;;;;;;;46.63;5.30;;;7.50;99.90;;;;;;5004178;28;20080;-69
2023/01/13 03:04:34;;;;;;;43.40;5.63;;;7.50;99.90;;;;;;5000595;28;20423;-71
2023/01/13 03:07:11;;;;;;;41.20;5.40;;;7.60;99.90;;;;;;4981194;28;20460;-68
2023/01/13 03:10:02;;;;;;;45.95;6.25;;;7.60;99.90;;;;;;4989091;28;20069;-70
2023/01/13 03:12:38;;;;;;;42.55;6.78;;;7.60;99.90;;;;;;4987166;28;20119;-64
2023/01/13 03:15:35;;;;;;;47.13;6.07;;;7.70;99.90;;;;;;5005071;28;20042;-66
2023/01/13 03:18:23;;;;;;;53.60;6.32;;;7.70;99.90;;;;;;4989656;28;20045;-66
2023/01/13 03:21:07;;;;;;;54.58;6.82;;;7.70;99.90;;;;;;4985600;28;20480;-66
2023/01/13 03:23:36;;;;;;;52.67;5.90;;;7.80;99.90;;;;;;4987276;28;20096;-68
2023/01/13 03:26:13;;;;;;;54.50;5.82;;;7.80;99.90;;;;;;4986347;28;20049;-65
2023/01/13 03:28:45;;;;;;;41.80;5.50;;;7.80;99.90;;;;;;4987184;28;21817;-67
2023/01/13 03:31:21;;;;;;;38.03;5.60;;;7.80;99.90;;;;;;4984879;28;20115;-67
2023/01/13 03:33:54;;;;;;;55.30;6.32;;;7.80;99.90;;;;;;4989163;28;20038;-65
2023/01/13 03:36:24;;;;;;;46.60;5.78;;;7.80;99.90;;;;;;5005122;28;20056;-64
2023/01/13 03:38:59;;;;;;;52.45;6.53;;;7.90;99.90;;;;;;5001811;28;20040;-69
2023/01/13 03:41:56;;;;;;;60.47;6.97;;;7.90;99.90;;;;;;4984878;28;20053;-66
2023/01/13 03:44:34;;;;;;;46.30;6.07;;;7.80;99.90;;;;;;5003252;28;20046;-67
2023/01/13 03:47:19;;;;;;;40.42;6.10;;;7.80;99.90;;;;;;5008696;28;20046;-70
2023/01/13 03:49:50;;;;;;;50.38;5.88;;;7.70;99.90;;;;;;4993144;28;20112;-66
2023/01/13 03:52:31;;;;;;;48.23;6.13;;;7.70;99.90;;;;;;4990327;28;20104;-67
2023/01/13 03:55:06;;;;;;;50.10;5.78;;;7.70;99.90;;;;;;4990461;28;20046;-74
2023/01/13 03:57:37;;;;;;;48.25;6.10;;;7.70;99.90;;;;;;4990168;28;20034;-69
2023/01/13 04:00:06;;;;;;;55.20;6.72;;;7.70;99.90;;;;;;4992046;28;20030;-66
2023/01/13 04:02:48;;;;;;;51.22;5.70;;;7.70;99.90;;;;;;4988079;28;20041;-65
2023/01/13 04:05:14;;;;;;;50.05;5.80;;;7.70;99.90;;;;;;4994507;28;20037;-69
2023/01/13 04:07:59;;;;;;;45.42;7.05;;;7.80;99.90;;;;;;4992451;28;20785;-67
2023/01/13 04:10:34;;;;;;;49.92;5.95;;;7.80;99.90;;;;;;4989479;28;20473;-66
2023/01/13 04:13:05;;;;;;;56.35;7.03;;;7.90;99.90;;;;;;4988494;28;21549;-65
2023/01/13 04:15:33;;;;;;;46.65;6.07;;;7.90;99.90;;;;;;4990662;28;20096;-68
2023/01/13 04:18:13;;;;;;;48.97;6.20;;;8.00;99.90;;;;;;4990604;28;20038;-67
2023/01/13 04:20:40;;;;;;;55.10;6.03;;;7.90;99.90;;;;;;4991186;28;20034;-67
2023/01/13 04:23:06;;;;;;;53.90;6.53;;;8.00;99.90;;;;;;4991370;28;20499;-66
2023/01/13 04:25:32;;;;;;;47.05;5.85;;;8.00;99.90;;;;;;4990806;28;20041;-68
2023/01/13 04:27:58;;;;;;;45.05;6.50;;;8.00;99.90;;;;;;4988975;28;20497;-68
2023/01/13 04:30:24;;;;;;;43.10;6.10;;;8.00;99.90;;;;;;4992060;28;20053;-72
2023/01/13 04:32:49;;;;;;;51.65;6.75;;;7.90;99.90;;;;;;4986931;28;20052;-69
2023/01/13 04:35:15;;;;;;;49.20;7.00;;;7.80;99.90;;;;;;4972989;28;20099;-68
2023/01/13 04:37:41;;;;;;;53.22;6.82;;;7.80;99.90;;;;;;4994818;28;20033;-67
2023/01/13 04:40:07;;;;;;;55.75;6.43;;;7.80;99.90;;;;;;4991284;28;20069;-65
2023/01/13 04:42:33;;;;;;;51.33;7.15;;;7.70;99.90;;;;;;4989339;28;20034;-69
2023/01/13 04:44:58;;;;;;;60.03;7.38;;;7.70;99.90;;;;;;4990933;28;20049;-68
2023/01/13 04:47:24;;;;;;;50.60;5.57;;;7.70;99.90;;;;;;4989666;28;20124;-66
2023/01/13 04:49:49;;;;;;;57.70;6.35;;;7.60;99.90;;;;;;4992648;28;20052;-65
2023/01/13 04:52:15;;;;;;;51.75;6.07;;;7.50;99.90;;;;;;4989242;28;20045;-67
2023/01/13 04:54:40;;;;;;;56.53;6.00;;;7.50;99.90;;;;;;5007744;28;20390;-65
2023/01/13 04:57:06;;;;;;;49.67;5.53;;;7.50;99.90;;;;;;4984527;28;20042;-69
2023/01/13 04:59:32;;;;;;;47.08;6.75;;;7.50;99.90;;;;;;4990763;28;20041;-69
2023/01/13 05:01:57;;;;;;;61.05;6.88;;;7.40;99.90;;;;;;4983614;28;20079;-69
2023/01/13 05:04:23;;;;;;;43.88;5.88;;;7.40;99.90;;;;;;5007273;28;20049;-68
2023/01/13 05:06:48;;;;;;;49.70;5.85;;;7.40;99.90;;;;;;4987004;28;20054;-66
2023/01/13 05:09:14;;;;;;;44.55;5.78;;;7.40;99.90;;;;;;4991494;28;20045;-67
2023/01/13 05:17:14;;;;;;;46.50;5.95;;;7.50;99.90;;;;;;4987151;28;20104;-68
2023/01/13 05:19:39;;;;;;;39.60;5.40;;;7.50;99.90;;;;;;4988802;28;20095;-67
2023/01/13 05:27:34;;;;;;;44.13;4.72;;;7.60;99.90;;;;;;4987514;28;20048;-66
2023/01/13 05:30:00;;;;;;;31.52;4.40;;;7.60;99.90;;;;;;4988137;28;20034;-66
2023/01/13 05:32:28;;;;;;;36.50;5.25;;;7.60;99.90;;;;;;4988442;28;20037;-66
2023/01/13 05:34:54;;;;;;;39.15;5.18;;;7.60;99.90;;;;;;4989113;28;20038;-67
2023/01/13 05:37:20;;;;;;;29.35;4.13;;;7.60;99.90;;;;;;4987919;28;20428;-69
2023/01/13 05:45:14;;;;;;;40.53;4.55;;;7.50;99.90;;;;;;4987157;28;20411;-66
2023/01/13 05:47:39;;;;;;;43.08;5.03;;;7.40;99.90;;;;;;4990251;28;20037;-66
2023/01/13 05:50:05;;;;;;;31.80;4.40;;;7.40;99.90;;;;;;4987635;28;20051;-66
2023/01/13 05:52:31;;;;;;;36.13;4.55;;;7.50;99.90;;;;;;4987653;28;20044;-66
2023/01/13 05:54:57;;;;;;;29.20;3.65;;;7.50;99.90;;;;;;4986888;28;20459;-66
2023/01/13 05:57:22;;;;;;;35.90;5.13;;;7.50;99.90;;;;;;4989057;28;20096;-64
2023/01/13 05:59:48;;;;;;;32.03;4.03;;;7.50;99.90;;;;;;4989615;28;20041;-66
2023/01/13 06:02:13;;;;;;;27.40;4.70;;;7.50;99.90;;;;;;4986339;28;20477;-68
2023/01/13 06:04:39;;;;;;;35.40;5.30;;;7.50;99.90;;;;;;4988944;28;20053;-65
2023/01/13 06:07:04;;;;;;;35.85;6.20;;;7.60;99.90;;;;;;4991590;28;20049;-65
2023/01/13 06:09:31;;;;;;;35.80;6.68;;;7.60;99.90;;;;;;4987922;28;20473;-67
2023/01/13 06:11:57;;;;;;;40.15;7.03;;;7.60;99.90;;;;;;5007134;28;20128;-66
2023/01/13 06:14:22;;;;;;;32.38;6.50;;;7.60;99.90;;;;;;4998428;28;20136;-68
2023/01/13 06:16:48;;;;;;;33.53;6.53;;;7.60;99.90;;;;;;4992749;28;20041;-66
2023/01/13 06:19:13;;;;;;;31.55;5.70;;;7.60;99.90;;;;;;4985843;28;20100;-66
2023/01/13 06:21:40;;;;;;;38.47;6.00;;;7.70;99.90;;;;;;5002920;28;20037;-67
2023/01/13 06:24:07;;;;;;;33.28;5.03;;;7.60;99.90;;;;;;5006768;28;20077;-66
2023/01/13 06:26:37;;;;;;;31.45;5.32;;;7.70;99.90;;;;;;4985870;28;20044;-66
2023/01/13 06:29:03;;;;;;;25.80;4.28;;;7.60;99.90;;;;;;4985336;28;20042;-71
2023/01/13 06:31:29;;;;;;;23.60;3.63;;;7.70;99.90;;;;;;4988142;28;20527;-67
2023/01/13 06:34:01;;;;;;;23.75;3.92;;;7.70;99.90;;;;;;4997458;28;20046;-70
2023/01/13 06:36:36;;;;;;;26.42;3.53;;;7.70;99.90;;;;;;4989231;28;20065;-67
2023/01/13 06:39:03;;;;;;;24.58;3.60;;;7.80;99.90;;;;;;4983251;28;20034;-63
2023/01/13 06:44:18;;;;;;;25.42;3.40;;;7.70;99.90;;;;;;4989800;28;20053;-64
2023/01/13 06:46:43;;;;;;;25.10;3.60;;;7.80;99.90;;;;;;4989863;28;20377;-69
2023/01/13 06:49:09;;;;;;;22.33;2.90;;;7.80;99.90;;;;;;4973329;28;20038;-67
2023/01/13 06:51:34;;;;;;;24.40;3.50;;;7.70;99.90;;;;;;4986438;28;20038;-67
2023/01/13 06:54:00;;;;;;;30.08;3.65;;;7.70;99.90;;;;;;4987099;28;20044;-66
2023/01/13 06:56:26;;;;;;;23.58;2.58;;;7.80;99.90;;;;;;4982189;28;20737;-66
2023/01/13 06:58:51;;;;;;;23.98;3.08;;;7.80;99.90;;;;;;4980693;28;20037;-68
2023/01/13 07:01:17;;;;;;;24.08;3.13;;;7.70;99.90;;;;;;4983840;28;20124;-65
2023/01/13 07:03:42;;;;;;;29.30;3.78;;;7.70;99.90;;;;;;4984694;28;20044;-65
2023/01/13 07:06:08;;;;;;;30.48;3.47;;;7.70;99.90;;;;;;4983591;28;20403;-66
2023/01/13 07:08:33;;;;;;;27.42;3.35;;;7.70;99.90;;;;;;4983854;28;20034;-68
2023/01/13 07:11:01;;;;;;;19.50;3.08;;;7.70;99.90;;;;;;4986040;28;20174;-64
2023/01/13 07:16:11;;;;;;;32.80;3.70;;;7.70;99.90;;;;;;4985640;28;20125;-66
2023/01/13 07:18:38;;;;;;;32.10;4.07;;;7.60;99.90;;;;;;4987175;28;20118;-68
2023/01/13 07:21:06;;;;;;;23.52;3.97;;;7.70;99.90;;;;;;4979663;28;20136;-65
2023/01/13 07:23:35;;;;;;;25.27;3.25;;;7.70;99.90;;;;;;4985108;28;20076;-67
2023/01/13 07:26:02;;;;;;;39.88;4.47;;;7.70;99.90;;;;;;4986146;28;20424;-67
2023/01/13 07:28:28;;;;;;;29.45;4.30;;;7.60;99.90;;;;;;4997409;28;20046;-67
2023/01/13 07:30:54;;;;;;;27.27;3.88;;;7.60;99.90;;;;;;4983352;28;20155;-66
2023/01/13 07:33:20;;;;;;;27.90;4.05;;;7.50;99.90;;;;;;4998145;28;20045;-64
2023/01/13 07:35:47;;;;;;;30.00;4.07;;;7.50;99.90;;;;;;5000309;28;20041;-69
2023/01/13 07:38:13;;;;;;;26.85;3.40;;;7.50;99.90;;;;;;4987233;28;20034;-67
2023/01/13 07:40:39;;;;;;;32.05;3.70;;;7.40;99.90;;;;;;4985618;28;20041;-68
2023/01/13 07:45:57;;;;;;;36.20;4.20;;;7.40;99.90;;;;;;4987155;28;20052;-66
2023/01/13 07:48:23;;;;;;;25.30;3.28;;;7.40;99.90;;;;;;4987225;28;20103;-65
2023/01/13 07:50:48;;;;;;;25.85;3.95;;;7.40;99.90;;;;;;4989309;28;20037;-69
2023/01/13 07:53:14;;;;;;;36.22;4.22;;;7.40;99.90;;;;;;4986752;28;20042;-69
2023/01/13 07:55:41;;;;;;;34.40;3.72;;;7.30;99.90;;;;;;4991531;28;20125;-73
2023/01/13 07:58:08;;;;;;;35.22;3.78;;;7.30;99.90;;;;;;4986804;28;20041;-73
2023/01/13 08:00:34;;;;;;;43.70;5.40;;;7.30;99.90;;;;;;4989390;28;20118;-71
2023/01/13 08:03:00;;;;;;;28.33;4.28;;;7.40;99.90;;;;;;4986471;28;20096;-71
2023/01/13 08:05:25;;;;;;;32.42;3.78;;;7.40;99.90;;;;;;4989653;28;20050;-71
2023/01/13 08:07:51;;;;;;;29.77;4.00;;;7.30;99.90;;;;;;4989380;28;20045;-75
2023/01/13 08:10:17;;;;;;;36.03;4.45;;;7.30;99.90;;;;;;4988443;28;20041;-72
2023/01/13 08:15:28;;;;;;;33.63;4.80;;;7.40;99.90;;;;;;4988953;28;20052;-66
2023/01/13 08:17:54;;;;;;;38.88;5.82;;;7.30;99.90;;;;;;5004331;28;20408;-75
2023/01/13 08:20:20;;;;;;;35.30;5.40;;;7.30;99.90;;;;;;4989902;28;20030;-69
2023/01/13 08:22:45;;;;;;;36.70;5.50;;;7.40;99.90;;;;;;4988579;28;20046;-69
2023/01/13 08:25:11;;;;;;;33.53;4.40;;;7.40;99.90;;;;;;4988060;28;20068;-72
2023/01/13 08:27:36;;;;;;;32.33;4.68;;;7.40;99.90;;;;;;4987895;28;20416;-71
2023/01/13 08:30:03;;;;;;;35.85;3.90;;;7.40;99.90;;;;;;4985033;28;20045;-72
2023/01/13 08:32:29;;;;;;;27.38;4.65;;;7.40;99.90;;;;;;4988762;28;20066;-72
2023/01/13 08:34:54;;;;;;;34.88;4.45;;;7.40;99.90;;;;;;4991929;28;20983;-73
2023/01/13 08:37:20;;;;;;;32.80;4.22;;;7.40;99.90;;;;;;4994445;28;20033;-69
2023/01/13 08:39:45;;;;;;;30.33;4.13;;;7.40;99.90;;;;;;5011042;28;20500;-72
2023/01/13 08:42:11;;;;;;;37.08;4.15;;;7.40;99.90;;;;;;4995237;28;20088;-69
2023/01/13 08:44:37;;;;;;;34.45;4.10;;;7.40;99.90;;;;;;4990841;28;20041;-71
2023/01/13 08:47:03;;;;;;;34.00;5.13;;;7.40;99.90;;;;;;4993926;28;20038;-71
2023/01/13 08:49:29;;;;;;;28.98;3.90;;;7.40;99.90;;;;;;4990102;28;20617;-71
2023/01/13 08:51:54;;;;;;;30.63;4.75;;;7.40;99.90;;;;;;4991203;28;20178;-70
2023/01/13 08:54:20;;;;;;;47.35;4.57;;;7.50;99.90;;;;;;4972189;28;20045;-72
2023/01/13 08:56:47;;;;;;;30.73;3.70;;;7.50;99.90;;;;;;4989572;28;20136;-71
2023/01/13 08:59:17;;;;;;;37.22;4.40;;;7.50;99.90;;;;;;4991256;28;20116;-68
2023/01/13 09:01:44;;;;;;;29.90;3.67;;;7.50;99.90;;;;;;5011994;28;20045;-70
2023/01/13 09:04:18;;;;;;;34.72;4.50;;;7.50;99.90;;;;;;5010219;28;20038;-73
2023/01/13 09:06:44;;;;;;;28.90;3.90;;;7.50;99.90;;;;;;5007420;28;20038;-69
2023/01/13 09:09:10;;;;;;;33.28;3.97;;;7.50;99.90;;;;;;4992624;28;20104;-70
2023/01/13 09:14:28;;;;;;;31.30;4.65;;;7.60;99.90;;;;;;4991203;28;20139;-72
2023/01/13 09:16:54;;;;;;;34.33;4.18;;;7.60;99.90;;;;;;4991284;28;20046;-73
2023/01/13 09:19:19;;;;;;;35.67;5.47;;;7.70;99.90;;;;;;4994824;28;20405;-73
2023/01/13 09:21:45;;;;;;;31.25;4.60;;;7.70;99.90;;;;;;4993215;28;20048;-72
2023/01/13 09:24:11;;;;;;;33.53;4.20;;;7.70;99.90;;;;;;4991561;28;20037;-69
2023/01/13 09:26:37;;;;;;;36.50;4.57;;;7.70;99.90;;;;;;4992312;28;20481;-69
2023/01/13 09:29:03;;;;;;;20.52;3.60;;;7.70;99.90;;;;;;5008467;28;20499;-71
2023/01/13 09:31:29;;;;;;;42.35;4.97;;;7.80;99.90;;;;;;4999800;28;20181;-70
2023/01/13 09:36:38;;;;;;;35.70;5.15;;;7.80;99.90;;;;;;4994162;28;20523;-73
2023/01/13 09:39:04;;;;;;;32.97;4.63;;;7.90;99.90;;;;;;4989174;28;20115;-74
2023/01/13 09:44:40;;;;;;;33.78;4.68;;;7.80;99.90;;;;;;4992377;28;20134;-72
2023/01/13 09:47:16;;;;;;;37.63;5.20;;;7.80;99.90;;;;;;4985327;28;20046;-69
2023/01/13 09:49:42;;;;;;;38.35;4.25;;;7.80;99.90;;;;;;4992472;28;20077;-71
2023/01/13 09:52:18;;;;;;;36.75;5.30;;;7.80;99.90;;;;;;4991702;28;20133;-74
2023/01/13 09:55:05;;;;;;;41.58;5.10;;;7.80;99.90;;;;;;5005783;28;20464;-73
2023/01/13 09:57:35;;;;;;;33.45;4.68;;;7.80;99.90;;;;;;4994364;28;20057;-72
2023/01/13 10:00:04;;;;;;;41.80;5.60;;;7.80;99.90;;;;;;4987340;28;20061;-71
2023/01/13 10:02:51;;;;;;;31.63;4.82;;;7.80;99.90;;;;;;4988747;28;20049;-71
2023/01/13 10:05:38;;;;;;;34.75;3.83;;;7.70;99.90;;;;;;4996375;28;20053;-72
2023/01/13 10:08:35;;;;;;;45.30;5.25;;;7.80;99.90;;;;;;4988606;28;20052;-70
2023/01/13 10:14:51;;;;;;;56.95;5.68;;;7.70;99.90;;;;;;4985797;28;20093;-71
2023/01/13 10:17:38;;;;;;;36.10;4.53;;;7.80;99.90;;;;;;4951324;28;20073;-71
2023/01/13 10:20:30;;;;;;;44.00;5.90;;;7.80;99.90;;;;;;5007729;28;20424;-71
2023/01/13 10:23:27;;;;;;;36.75;4.93;;;7.80;99.90;;;;;;4990315;28;20125;-72
2023/01/13 10:26:23;;;;;;;49.03;5.63;;;7.80;99.90;;;;;;4991890;28;20042;-73
2023/01/13 10:28:54;;;;;;;36.97;3.95;;;7.80;99.90;;;;;;5009949;28;20064;-73
2023/01/13 10:31:21;;;;;;;42.45;5.13;;;7.80;99.90;;;;;;4993763;28;20042;-74
2023/01/13 10:33:47;;;;;;;33.10;4.78;;;7.80;99.90;;;;;;4991859;28;20124;-71
2023/01/13 10:36:20;;;;;;;31.80;4.32;;;7.80;99.90;;;;;;5004220;28;20130;-71
2023/01/13 10:38:48;;;;;;;44.45;6.80;;;7.70;99.90;;;;;;4990872;28;20044;-72
2023/01/13 10:41:13;;;;;;;50.60;5.30;;;7.80;99.90;;;;;;5009193;28;20491;-69
2023/01/13 10:43:41;;;;;;;40.65;5.13;;;7.80;99.90;;;;;;4991652;28;20043;-70
2023/01/13 10:46:14;;;;;;;37.72;5.80;;;7.80;99.90;;;;;;4990595;28;20436;-70
2023/01/13 10:48:51;;;;;;;41.83;5.15;;;7.80;99.90;;;;;;4989138;28;20072;-70
2023/01/13 10:51:18;;;;;;;34.60;4.47;;;7.90;99.90;;;;;;4991505;28;20038;-69
2023/01/13 10:54:01;;;;;;;40.97;4.90;;;7.90;99.90;;;;;;4991843;28;20392;-69
2023/01/13 10:56:30;;;;;;;33.33;4.57;;;7.80;99.90;;;;;;5007633;28;20041;-71
2023/01/13 10:59:21;;;;;;;42.63;4.78;;;7.90;99.90;;;;;;4991656;28;20128;-71
2023/01/13 11:02:27;;;;;;;35.15;5.18;;;7.90;99.90;;;;;;5001175;28;20117;-74
2023/01/13 11:04:52;;;;;;;40.08;5.65;;;7.90;99.90;;;;;;4987569;28;20046;-71
2023/01/13 11:07:32;;;;;;;49.95;4.75;;;7.90;99.90;;;;;;4992243;28;20049;-74
2023/01/13 11:10:19;;;;;;;36.13;5.30;;;8.00;99.90;;;;;;4988431;28;20052;-70
2023/01/13 11:13:04;;;;;;;35.67;4.53;;;8.00;99.90;;;;;;4986284;28;20092;-69
2023/01/13 11:16:05;;;;;;;36.95;5.38;;;8.00;99.90;;;;;;5004848;28;20128;-69
2023/01/13 11:18:39;;;;;;;30.45;4.30;;;8.00;99.90;;;;;;4986943;28;20428;-71
2023/01/13 11:21:11;;;;;;;41.20;4.93;;;8.10;99.90;;;;;;4990464;28;20054;-73
2023/01/13 11:23:44;;;;;;;36.55;3.65;;;8.10;99.90;;;;;;4986502;28;20042;-69
2023/01/13 11:26:16;;;;;;;33.92;4.38;;;8.20;99.90;;;;;;4997761;28;20148;-71
2023/01/13 11:28:48;;;;;;;27.25;4.93;;;8.20;99.90;;;;;;4991306;28;20049;-69
2023/01/13 11:31:31;;;;;;;29.60;4.82;;;8.30;99.90;;;;;;4987041;28;20037;-69
2023/01/13 11:34:03;;;;;;;33.42;4.75;;;8.30;99.90;;;;;;4987477;28;20097;-70
2023/01/13 11:36:42;;;;;;;36.40;4.90;;;8.30;99.90;;;;;;4988261;28;20040;-73
2023/01/13 11:39:36;;;;;;;27.95;4.47;;;8.40;99.90;;;;;;4988052;28;20103;-68
2023/01/13 11:42:19;;;;;;;36.25;4.88;;;8.30;99.90;;;;;;4986906;28;20100;-69
2023/01/13 11:45:16;;;;;;;32.63;4.80;;;8.40;99.90;;;;;;5003726;28;20046;-69
2023/01/13 11:47:46;;;;;;;25.27;4.50;;;8.40;99.90;;;;;;4984933;28;20452;-68
2023/01/13 11:50:47;;;;;;;30.55;4.07;;;8.40;99.90;;;;;;4990438;28;20053;-69
2023/01/13 11:53:18;;;;;;;27.88;4.70;;;8.50;99.90;;;;;;4986895;28;20385;-68
2023/01/13 11:56:03;;;;;;;34.58;4.15;;;8.60;99.90;;;;;;4986979;28;20052;-67
2023/01/13 11:58:34;;;;;;;30.23;3.88;;;8.60;99.90;;;;;;5007068;28;20046;-68
2023/01/13 12:01:07;;;;;;;24.53;3.73;;;8.60;99.90;;;;;;5000155;28;20180;-70
2023/01/13 12:03:46;;;;;;;23.92;4.18;;;8.70;99.90;;;;;;5026153;28;20072;-68
2023/01/13 12:06:33;;;;;;;25.52;4.05;;;8.70;99.90;;;;;;4994715;28;20041;-69
2023/01/13 12:09:10;;;;;;;21.50;3.88;;;8.80;99.90;;;;;;4990442;28;20718;-68
2023/01/13 12:15:06;;;;;;;26.65;4.00;;;8.80;99.90;;;;;;4992975;28;20056;-70
2023/01/13 12:17:35;;;;;;;38.28;3.97;;;8.70;99.90;;;;;;4991061;28;20046;-67
2023/01/13 12:20:21;;;;;;;28.95;4.18;;;8.80;99.90;;;;;;4995039;28;20571;-73
2023/01/13 12:22:50;;;;;;;24.92;3.53;;;8.70;99.90;;;;;;4995006;28;20045;-68
2023/01/13 12:25:26;;;;;;;23.58;4.60;;;8.70;99.90;;;;;;4990320;28;20211;-68
2023/01/13 12:28:13;;;;;;;25.75;4.00;;;8.60;99.90;;;;;;5001329;28;20053;-69
2023/01/13 12:30:44;;;;;;;21.05;3.30;;;8.60;99.90;;;;;;5007901;28;20033;-69
2023/01/13 12:33:39;;;;;;;30.67;4.93;;;8.70;99.90;;;;;;4989931;28;20049;-68
2023/01/13 12:36:30;;;;;;;21.95;3.55;;;8.70;99.90;;;;;;4987115;28;20542;-68
2023/01/13 12:39:05;;;;;;;23.40;4.13;;;8.60;99.90;;;;;;4986887;28;20046;-70
2023/01/13 12:44:32;;;;;;;22.63;3.30;;;8.70;99.90;;;;;;5004767;28;20061;-68
2023/01/13 12:46:58;;;;;;;21.77;3.33;;;8.70;99.90;;;;;;4987596;28;20400;-70
2023/01/13 12:49:33;;;;;;;23.92;3.38;;;8.70;99.90;;;;;;5009856;28;20448;-68
2023/01/13 12:52:09;;;;;;;21.60;3.58;;;8.80;99.90;;;;;;4994746;28;20042;-71
2023/01/13 12:54:38;;;;;;;19.70;2.80;;;8.70;99.90;;;;;;4992190;28;20042;-68
2023/01/13 12:57:25;;;;;;;18.08;3.25;;;8.70;99.90;;;;;;4989473;28;20037;-67
2023/01/13 13:00:02;;;;;;;19.85;3.15;;;8.70;99.90;;;;;;4985731;28;20034;-66
2023/01/13 13:02:40;;;;;;;18.23;3.67;;;8.70;99.90;;;;;;4988951;28;20116;-68
2023/01/13 13:05:23;;;;;;;26.15;3.65;;;8.80;99.90;;;;;;5001474;28;20500;-69
2023/01/13 13:08:04;;;;;;;19.52;3.33;;;8.80;99.90;;;;;;5005867;28;20404;-68
2023/01/13 13:10:35;;;;;;;26.98;3.13;;;8.80;99.90;;;;;;5003919;28;20069;-68
2023/01/13 13:13:16;;;;;;;27.35;3.67;;;8.80;99.90;;;;;;4987205;28;20081;-67
2023/01/13 13:15:44;;;;;;;26.75;3.13;;;8.90;99.90;;;;;;4987012;28;20052;-70
2023/01/13 13:18:15;;;;;;;20.15;3.08;;;8.80;99.90;;;;;;4987668;28;20477;-70
2023/01/13 13:20:58;;;;;;;20.07;3.93;;;8.80;99.90;;;;;;4988965;28;20119;-67
2023/01/13 13:23:35;;;;;;;21.75;3.15;;;8.80;99.90;;;;;;4995083;28;20493;-69
2023/01/13 13:26:18;;;;;;;28.70;3.35;;;8.80;99.90;;;;;;4992494;28;20053;-70
2023/01/13 13:29:07;;;;;;;23.45;3.25;;;8.80;99.90;;;;;;4995813;28;20436;-67
2023/01/13 13:31:48;;;;;;;24.35;3.28;;;8.80;99.90;;;;;;4993281;28;20124;-69
2023/01/13 13:34:22;;;;;;;14.70;2.50;;;8.80;99.90;;;;;;4984975;28;20078;-69
2023/01/13 13:37:18;;;;;;;14.60;2.90;;;8.80;99.90;;;;;;4993470;28;20042;-73
2023/01/13 13:48:38;;;;;;;17.85;3.17;;;8.90;99.90;;;;;;4991284;28;20088;-71
2023/01/13 13:51:24;;;;;;;19.30;3.35;;;8.80;99.90;;;;;;4985899;28;20054;-75
2023/01/13 13:53:51;;;;;;;18.63;2.85;;;8.80;99.90;;;;;;4991223;28;20050;-75
2023/01/13 13:56:23;;;;;;;18.42;3.47;;;8.80;99.90;;;;;;4993010;28;20413;-76
2023/01/13 13:58:51;;;;;;;17.38;2.63;;;8.80;99.90;;;;;;5006304;28;20091;-71
2023/01/13 14:01:36;;;;;;;17.10;3.08;;;8.80;99.90;;;;;;4987780;28;20504;-73
2023/01/13 14:04:21;;;;;;;17.80;2.60;;;8.80;99.90;;;;;;4989570;28;20113;-74
2023/01/13 14:06:53;;;;;;;15.00;2.60;;;8.80;99.90;;;;;;4993410;28;20409;-72
2023/01/13 14:09:19;;;;;;;20.58;3.65;;;8.70;99.90;;;;;;4992631;28;20081;-70
2023/01/13 14:11:59;;;;;;;15.48;3.05;;;8.80;99.90;;;;;;4997597;28;20396;-77
2023/01/13 14:14:25;;;;;;;15.77;3.40;;;8.80;99.90;;;;;;4992724;28;20046;-73
2023/01/13 14:16:53;;;;;;;18.63;2.80;;;8.80;99.90;;;;;;4991503;28;20042;-77
2023/01/13 14:19:31;;;;;;;13.07;2.72;;;8.90;99.90;;;;;;4992275;28;20037;-72